createdAt,value
2019-04-05T00:03:35.650Z,18.60
2019-04-05T00:06:43.749Z,18.17
2019-04-05T00:09:51.769Z,18.67
2019-04-05T00:12:52.508Z,19.83
2019-04-05T00:15:53.069Z,18.90
2019-04-05T00:18:53.926Z,17.87
2019-04-05T00:21:54.817Z,18.63
2019-04-05T00:24:55.794Z,18.50
2019-04-05T00:27:56.574Z,18.57
2019-04-05T00:30:57.549Z,17.43
2019-04-05T00:33:57.929Z,17.23
2019-04-05T00:36:58.733Z,16.87
2019-04-05T00:39:59.397Z,16.97
2019-04-05T00:42:59.962Z,17.57
2019-04-05T00:46:00.634Z,16.43
2019-04-05T00:49:01.294Z,16.33
2019-04-05T00:52:02.224Z,16.67
2019-04-05T00:55:03.002Z,16.80
2019-04-05T00:58:03.941Z,17.20
2019-04-05T01:01:04.861Z,16.40
2019-04-05T01:04:05.878Z,16.40
2019-04-05T01:07:06.897Z,17.13
2019-04-05T01:10:07.758Z,17.20
2019-04-05T01:13:08.321Z,16.07
2019-04-05T01:16:09.445Z,16.67
2019-04-05T01:19:10.126Z,17.23
2019-04-05T01:22:10.953Z,22.15
2019-04-05T01:25:11.450Z,17.97
2019-04-05T01:28:12.476Z,18.27
2019-04-05T01:34:28.445Z,16.27
2019-04-05T01:37:36.881Z,15.90
2019-04-05T01:41:05.537Z,17.40
2019-04-05T01:44:13.582Z,17.17
2019-04-05T01:47:21.597Z,16.47
2019-04-05T01:50:29.701Z,18.30
2019-04-05T01:53:37.730Z,16.33
2019-04-05T01:56:45.745Z,19.13
2019-04-05T01:59:53.777Z,17.40
2019-04-05T02:03:01.830Z,17.03
2019-04-05T02:06:09.865Z,17.73
2019-04-05T02:09:17.994Z,20.63
2019-04-05T02:12:26.149Z,17.57
2019-04-05T02:16:05.649Z,16.23
2019-04-05T02:19:04.597Z,15.33
2019-04-05T02:22:12.618Z,15.17
2019-04-05T02:25:20.717Z,17.30
2019-04-05T02:28:28.736Z,16.27
2019-04-05T02:31:36.774Z,16.60
2019-04-05T02:34:44.810Z,16.10
2019-04-05T02:37:52.969Z,14.80
2019-04-05T02:41:01.390Z,16.17
2019-04-05T02:44:30.051Z,17.13
2019-04-05T02:47:58.859Z,14.97
2019-04-05T02:51:09.153Z,14.77
2019-04-05T02:54:17.536Z,16.43
2019-04-05T02:57:25.956Z,16.33
2019-04-05T03:00:34.167Z,15.57
2019-04-05T03:03:42.654Z,15.93
2019-04-05T03:07:11.317Z,16.43
2019-04-05T03:10:38.586Z,15.73
2019-04-05T03:13:39.050Z,17.07
2019-04-05T03:16:41.641Z,14.83
2019-04-05T03:19:42.675Z,15.17
2019-04-05T03:22:43.302Z,16.80
2019-04-05T03:25:43.815Z,16.80
2019-04-05T03:28:44.548Z,16.17
2019-04-05T03:31:45.136Z,16.13
2019-04-05T03:34:45.824Z,16.30
2019-04-05T03:37:46.246Z,16.27
2019-04-05T03:40:46.897Z,16.47
2019-04-05T03:43:47.568Z,17.70
2019-04-05T03:46:56.316Z,16.97
2019-04-05T03:49:50.835Z,17.87
2019-04-05T03:52:51.806Z,17.70
2019-04-05T03:55:52.442Z,17.93
2019-04-05T03:58:52.962Z,16.40
2019-04-05T04:01:53.476Z,16.80
2019-04-05T04:04:54.187Z,16.63
2019-04-05T04:07:54.959Z,17.13
2019-04-05T04:10:55.638Z,17.50
2019-04-05T04:13:56.360Z,23.35
2019-04-05T04:17:11.535Z,17.97
2019-04-05T04:19:59.250Z,17.37
2019-04-05T04:22:59.933Z,17.97
2019-04-05T04:26:01.217Z,17.60
2019-04-05T04:29:01.917Z,17.27
2019-04-05T04:32:02.651Z,16.97
2019-04-05T04:35:03.245Z,15.93
2019-04-05T04:38:03.866Z,17.67
2019-04-05T04:41:04.878Z,16.57
2019-04-05T04:44:05.298Z,16.47
2019-04-05T04:47:06.027Z,17.33
2019-04-05T04:50:06.794Z,16.77
2019-04-05T04:53:07.598Z,17.00
2019-04-05T04:56:08.382Z,14.87
2019-04-05T04:59:09.234Z,15.60
2019-04-05T05:02:09.930Z,17.20
2019-04-05T05:05:10.657Z,15.60
2019-04-05T05:08:11.789Z,15.17
2019-04-05T05:11:14.890Z,15.57
2019-04-05T05:14:15.334Z,15.70
2019-04-05T05:17:16.094Z,16.03
2019-04-05T05:20:16.898Z,14.30
2019-04-05T05:23:17.637Z,14.50
2019-04-05T05:26:18.554Z,14.83
2019-04-05T05:29:19.536Z,14.97
2019-04-05T05:32:20.266Z,15.77
2019-04-05T05:35:21.266Z,15.50
2019-04-05T05:38:21.890Z,14.43
2019-04-05T05:41:22.735Z,14.60
2019-04-05T05:44:23.722Z,15.43
2019-04-05T05:47:24.532Z,14.73
2019-04-05T05:50:25.217Z,14.33
2019-04-05T05:53:26.105Z,15.07
2019-04-05T05:56:27.151Z,13.37
2019-04-05T05:59:30.346Z,14.60
2019-04-05T06:02:30.781Z,14.57
2019-04-05T06:05:31.513Z,15.43
2019-04-05T06:08:32.249Z,14.87
2019-04-05T06:11:32.941Z,15.93
2019-04-05T06:14:33.796Z,14.43
2019-04-05T06:17:34.654Z,14.50
2019-04-05T06:20:35.646Z,14.43
2019-04-05T06:23:36.614Z,14.50
2019-04-05T06:26:37.421Z,15.13
2019-04-05T06:29:38.349Z,15.37
2019-04-05T06:32:38.754Z,14.03
2019-04-05T06:35:39.776Z,14.87
2019-04-05T06:38:40.548Z,14.87
2019-04-05T06:41:41.285Z,15.20
2019-04-05T06:44:42.065Z,14.87
2019-04-05T06:47:42.905Z,15.20
2019-04-05T06:50:43.346Z,13.97
2019-04-05T06:53:44.010Z,15.47
2019-04-05T06:56:44.969Z,14.90
2019-04-05T06:59:45.845Z,14.23
2019-04-05T07:02:46.646Z,13.60
2019-04-05T07:05:47.505Z,14.63
2019-04-05T07:08:53.960Z,13.83
2019-04-05T07:11:51.090Z,14.53
2019-04-05T07:14:52.080Z,14.90
2019-04-05T07:17:52.894Z,14.57
2019-04-05T07:20:53.584Z,13.50
2019-04-05T07:23:54.573Z,14.43
2019-04-05T07:26:55.225Z,15.73
2019-04-05T07:29:56.143Z,15.53
2019-04-05T07:32:56.873Z,13.50
2019-04-05T07:35:57.837Z,15.03
2019-04-05T07:38:58.592Z,14.20
2019-04-05T07:41:59.392Z,16.17
2019-04-05T07:45:00.418Z,13.77
2019-04-05T07:48:01.060Z,16.37
2019-04-05T07:51:01.867Z,13.00
2019-04-05T07:54:02.509Z,14.07
2019-04-05T07:57:03.117Z,15.93
2019-04-05T08:00:03.910Z,16.80
2019-04-05T08:03:04.339Z,20.30
2019-04-05T08:06:05.126Z,14.73
2019-04-05T08:09:06.304Z,14.40
2019-04-05T08:12:07.301Z,14.50
2019-04-05T08:15:08.126Z,14.27
2019-04-05T08:18:08.733Z,14.27
2019-04-05T08:21:09.593Z,14.23
2019-04-05T08:24:10.814Z,13.33
2019-04-05T08:27:11.559Z,14.03
2019-04-05T08:30:12.432Z,13.63
2019-04-05T08:33:13.365Z,14.23
2019-04-05T08:36:14.092Z,15.23
2019-04-05T08:39:14.598Z,14.50
2019-04-05T08:42:15.587Z,14.57
2019-04-05T08:45:16.193Z,14.53
2019-04-05T08:48:16.813Z,15.07
2019-04-05T08:51:17.705Z,13.73
2019-04-05T08:54:31.605Z,14.70
2019-04-05T08:57:21.426Z,15.37
2019-04-05T09:00:22.400Z,13.80
2019-04-05T09:03:23.042Z,14.73
2019-04-05T09:06:23.974Z,13.60
2019-04-05T09:09:24.697Z,14.90
2019-04-05T09:12:25.355Z,14.53
2019-04-05T09:15:24.471Z,14.17
2019-04-05T09:18:32.505Z,14.43
2019-04-05T09:21:40.791Z,14.67
2019-04-05T09:24:50.249Z,13.90
2019-04-05T09:27:58.286Z,14.97
2019-04-05T09:31:06.370Z,14.47
2019-04-05T09:34:14.409Z,13.23
2019-04-05T09:37:22.446Z,13.83
2019-04-05T09:40:30.462Z,13.03
2019-04-05T09:43:38.486Z,12.13
2019-04-05T09:46:50.902Z,13.70
2019-04-05T09:49:56.237Z,13.87
2019-04-05T09:53:04.276Z,13.73
2019-04-05T09:56:12.367Z,13.87
2019-04-05T09:59:20.410Z,13.13
2019-04-05T10:02:31.595Z,13.60
2019-04-05T10:05:38.221Z,14.40
2019-04-05T10:08:46.257Z,13.40
2019-04-05T10:11:54.282Z,13.37
2019-04-05T10:14:55.142Z,13.77
2019-04-05T10:17:55.973Z,13.70
2019-04-05T10:20:56.600Z,13.97
2019-04-05T10:23:57.286Z,13.63
2019-04-05T10:26:58.285Z,13.97
2019-04-05T10:29:59.184Z,14.63
2019-04-05T10:33:00.267Z,14.47
2019-04-05T10:36:01.210Z,15.23
2019-04-05T10:39:02.302Z,13.83
2019-04-05T10:42:04.059Z,14.57
2019-04-05T10:45:05.276Z,14.20
2019-04-05T10:48:06.373Z,14.03
2019-04-05T10:51:07.238Z,14.27
2019-04-05T10:54:09.554Z,14.70
2019-04-05T10:57:10.391Z,13.80
2019-04-05T11:00:11.741Z,13.07
2019-04-05T11:03:12.926Z,13.67
2019-04-05T11:06:13.305Z,14.43
2019-04-05T11:09:14.149Z,14.27
2019-04-05T11:12:17.561Z,14.07
2019-04-05T11:15:18.437Z,14.63
2019-04-05T11:18:19.110Z,14.77
2019-04-05T11:21:19.501Z,15.30
2019-04-05T11:24:19.985Z,14.53
2019-04-05T11:27:20.662Z,14.37
2019-04-05T11:30:21.349Z,13.90
2019-04-05T11:33:22.226Z,14.93
2019-04-05T11:36:22.978Z,14.80
2019-04-05T11:39:23.650Z,13.67
2019-04-05T11:42:24.372Z,15.13
2019-04-05T11:45:24.901Z,13.67
2019-04-05T11:48:25.456Z,15.13
2019-04-05T11:51:26.076Z,15.07
2019-04-05T11:54:27.022Z,13.77
2019-04-05T11:57:27.902Z,15.33
2019-04-05T12:03:44.011Z,15.97
2019-04-05T12:06:44.986Z,21.67
2019-04-05T12:09:46.024Z,15.17
2019-04-05T12:12:48.601Z,17.27
2019-04-05T12:15:49.551Z,16.17
2019-04-05T12:18:50.409Z,15.70
2019-04-05T12:21:51.114Z,15.83
2019-04-05T12:24:51.742Z,15.53
2019-04-05T12:28:00.336Z,14.03
2019-04-05T12:30:55.236Z,15.30
2019-04-05T12:33:56.165Z,14.97
2019-04-05T12:36:44.949Z,15.73
2019-04-05T12:39:52.984Z,15.83
2019-04-05T12:43:01.000Z,15.47
2019-04-05T12:46:09.106Z,15.40
2019-04-05T12:49:17.137Z,15.33
2019-04-05T12:52:27.468Z,16.07
2019-04-05T12:55:34.881Z,16.80
2019-04-05T12:58:42.894Z,15.77
2019-04-05T13:01:51.001Z,15.70
2019-04-05T13:04:59.029Z,16.30
2019-04-05T13:08:07.046Z,16.17
2019-04-05T13:11:15.077Z,16.00
2019-04-05T13:14:15.904Z,16.10
2019-04-05T13:17:16.896Z,16.17
2019-04-05T13:20:17.604Z,16.03
2019-04-05T13:23:18.194Z,17.17
2019-04-05T13:26:18.950Z,15.30
2019-04-05T13:29:20.316Z,16.27
2019-04-05T13:32:21.550Z,16.67
2019-04-05T13:35:29.161Z,17.17
2019-04-05T13:38:37.174Z,17.77
2019-04-05T13:41:45.221Z,16.23
2019-04-05T13:44:53.255Z,16.87
2019-04-05T13:48:01.265Z,17.60
2019-04-05T13:51:10.393Z,18.07
2019-04-05T13:54:19.005Z,16.97
2019-04-05T13:57:28.513Z,16.93
2019-04-05T14:00:36.830Z,17.30
2019-04-05T14:03:44.837Z,17.53
2019-04-05T14:06:53.674Z,17.47
2019-04-05T14:10:02.681Z,18.07
2019-04-05T14:13:10.713Z,18.23
2019-04-05T14:16:18.742Z,18.20
2019-04-05T14:19:28.805Z,16.43
2019-04-05T14:22:36.496Z,16.77
2019-04-05T14:25:44.529Z,16.63
2019-04-05T14:28:53.119Z,15.90
2019-04-05T14:32:19.387Z,15.77
2019-04-05T14:38:11.812Z,16.73
2019-04-05T14:41:20.825Z,16.67
2019-04-05T14:44:28.838Z,16.50
2019-04-05T14:47:36.945Z,17.17
2019-04-05T14:53:59.597Z,16.13
2019-04-05T14:57:08.649Z,15.37
2019-04-05T15:03:45.802Z,15.53
2019-04-05T15:10:07.257Z,17.00
2019-04-05T15:12:56.058Z,16.33
2019-04-05T15:15:57.024Z,16.23
2019-04-05T15:18:57.706Z,16.87
2019-04-05T15:22:05.585Z,17.27
2019-04-05T15:25:01.459Z,16.50
2019-04-05T15:28:02.188Z,16.50
2019-04-05T15:31:03.100Z,17.00
2019-04-05T15:34:04.098Z,16.87
2019-04-05T15:37:05.590Z,17.87
2019-04-05T15:40:05.994Z,17.67
2019-04-05T15:43:07.049Z,17.30
2019-04-05T15:46:08.033Z,16.40
2019-04-05T15:49:08.881Z,17.47
2019-04-05T15:52:18.570Z,17.87
2019-04-05T15:55:12.699Z,18.57
2019-04-05T15:58:13.369Z,17.07
2019-04-05T16:01:14.405Z,18.00
2019-04-05T16:04:15.137Z,17.70
2019-04-05T16:07:15.789Z,17.13
2019-04-05T16:10:16.461Z,17.80
2019-04-05T16:13:17.362Z,17.03
2019-04-05T16:16:18.081Z,18.03
2019-04-05T16:19:18.917Z,17.07
2019-04-05T16:22:30.854Z,18.00
2019-04-05T16:25:22.376Z,18.67
2019-04-05T16:28:23.118Z,19.00
2019-04-05T16:31:23.696Z,18.80
2019-04-05T16:34:24.516Z,18.33
2019-04-05T16:37:25.261Z,18.87
2019-04-05T16:40:26.149Z,18.63
2019-04-05T16:43:26.909Z,18.40
2019-04-05T16:46:27.561Z,19.43
2019-04-05T16:49:28.478Z,18.40
2019-04-05T16:52:29.429Z,19.60
2019-04-05T16:55:30.097Z,19.40
2019-04-05T16:58:30.849Z,18.27
2019-04-05T17:01:31.697Z,19.23
2019-04-05T17:04:32.477Z,18.97
2019-04-05T17:07:33.270Z,18.33
2019-04-05T17:10:34.581Z,20.60
2019-04-05T17:13:35.008Z,18.30
2019-04-05T17:16:35.721Z,20.53
2019-04-05T17:19:36.464Z,18.87
2019-04-05T17:22:37.320Z,20.00
2019-04-05T17:25:37.790Z,19.63
2019-04-05T17:28:38.808Z,21.03
2019-04-05T17:31:39.296Z,20.23
2019-04-05T17:34:41.210Z,20.73
2019-04-05T17:37:41.873Z,21.53
2019-04-05T17:40:42.886Z,19.03
2019-04-05T17:43:43.574Z,20.47
2019-04-05T17:46:44.334Z,19.53
2019-04-05T17:49:45.122Z,20.80
2019-04-05T17:52:45.786Z,20.67
2019-04-05T17:55:46.937Z,19.77
2019-04-05T17:58:47.686Z,19.40
2019-04-05T18:01:48.395Z,20.40
2019-04-05T18:04:49.137Z,19.53
2019-04-05T18:07:50.261Z,20.03
2019-04-05T18:10:51.085Z,20.53
2019-04-05T18:13:52.192Z,20.47
2019-04-05T18:16:53.051Z,21.83
2019-04-05T18:19:53.849Z,22.13
2019-04-05T18:22:54.494Z,23.10
2019-04-05T18:25:55.494Z,22.37
2019-04-05T18:28:56.117Z,22.73
2019-04-05T18:31:56.793Z,21.73
2019-04-05T18:34:57.569Z,22.63
2019-04-05T18:37:58.131Z,21.57
2019-04-05T18:40:58.773Z,21.53
2019-04-05T18:43:59.441Z,22.67
2019-04-05T18:47:00.342Z,23.10
2019-04-05T18:50:03.226Z,23.97
2019-04-05T18:53:04.242Z,22.77
2019-04-05T18:56:05.161Z,23.73
2019-04-05T18:59:05.797Z,24.77
2019-04-05T19:02:06.513Z,23.90
2019-04-05T19:05:07.296Z,23.43
2019-04-05T19:08:08.290Z,22.13
2019-04-05T19:11:09.241Z,23.47
2019-04-05T19:14:09.867Z,23.13
2019-04-05T19:17:22.901Z,23.07
2019-04-05T19:20:13.383Z,22.30
2019-04-05T19:23:14.113Z,22.07
2019-04-05T19:26:14.982Z,25.30
2019-04-05T19:29:15.822Z,23.23
2019-04-05T19:50:33.261Z,24.70
2019-04-05T19:53:34.025Z,22.93
2019-04-05T19:56:35.271Z,23.00
2019-04-05T19:59:36.279Z,26.50
2019-04-05T20:02:37.305Z,27.27
2019-04-05T20:05:37.858Z,27.70
2019-04-05T20:08:38.524Z,24.60
2019-04-05T20:11:39.086Z,24.20
2019-04-05T20:14:39.621Z,24.10
2019-04-05T20:17:40.319Z,24.00
2019-04-05T20:20:41.300Z,24.07
2019-04-05T20:23:47.492Z,22.43
2019-04-05T20:26:44.990Z,24.47
2019-04-05T20:29:45.777Z,23.23
2019-04-05T20:32:46.377Z,23.60
2019-04-05T20:35:47.137Z,24.40
2019-04-05T20:38:47.941Z,24.17
2019-04-05T20:41:48.842Z,24.63
2019-04-05T20:44:49.685Z,32.10
2019-04-05T20:47:50.474Z,26.80
2019-04-05T20:50:51.277Z,24.70
2019-04-05T20:53:52.023Z,23.40
2019-04-05T20:56:52.841Z,24.67
2019-04-05T20:59:53.927Z,24.27
2019-04-05T21:02:54.784Z,25.40
2019-04-05T21:05:55.557Z,23.30
2019-04-05T21:08:56.390Z,23.83
2019-04-05T21:11:57.114Z,23.07
2019-04-05T21:14:58.114Z,22.57
2019-04-05T21:17:58.790Z,24.17
2019-04-05T21:20:59.625Z,23.37
2019-04-05T21:24:00.556Z,22.83
2019-04-05T21:27:01.414Z,24.03
2019-04-05T21:30:02.341Z,23.43
2019-04-05T21:33:03.014Z,23.83
2019-04-05T21:36:03.665Z,24.13
2019-04-05T21:39:04.768Z,24.80
2019-04-05T21:42:12.777Z,24.20
2019-04-05T21:45:20.809Z,24.80
2019-04-05T21:48:30.633Z,25.20
2019-04-05T21:51:38.551Z,24.87
2019-04-05T21:54:47.809Z,26.30
2019-04-05T22:04:40.534Z,25.30
2019-04-05T22:07:48.548Z,25.97
2019-04-05T22:10:56.581Z,26.37
2019-04-05T22:13:57.669Z,25.50
2019-04-05T22:16:58.671Z,25.07
2019-04-05T22:19:59.181Z,25.63
2019-04-05T22:22:59.645Z,25.70
2019-04-05T22:26:00.228Z,28.63
2019-04-05T22:29:00.721Z,28.73
2019-04-05T22:32:01.583Z,28.30
2019-04-05T22:35:02.410Z,28.53
2019-04-05T22:38:02.954Z,30.43
2019-04-05T22:41:03.845Z,29.60
2019-04-05T22:44:04.722Z,31.20
2019-04-05T22:47:05.279Z,31.13
2019-04-05T22:50:05.898Z,29.63
2019-04-05T22:53:06.424Z,28.73
2019-04-05T22:56:07.233Z,31.13
2019-04-05T22:59:07.602Z,31.60
2019-04-05T23:02:08.374Z,31.20
2019-04-05T23:05:09.209Z,32.40
2019-04-05T23:08:10.117Z,31.43
2019-04-05T23:11:10.861Z,30.40
2019-04-05T23:14:11.585Z,30.13
2019-04-05T23:17:12.617Z,32.70
2019-04-05T23:20:13.534Z,31.37
2019-04-05T23:23:14.341Z,32.03
2019-04-05T23:26:14.873Z,33.30
2019-04-05T23:29:15.822Z,31.37
2019-04-05T23:32:16.705Z,31.83
2019-04-05T23:35:17.562Z,33.13
2019-04-05T23:38:18.233Z,34.17
2019-04-05T23:41:19.137Z,34.73
2019-04-05T23:44:19.909Z,32.23
2019-04-05T23:47:20.727Z,34.50
2019-04-05T23:50:21.506Z,32.77
2019-04-05T23:53:22.329Z,33.40
2019-04-05T23:56:23.100Z,34.37
2019-04-05T23:59:23.933Z,35.33
